createdAt,value
2019-04-14T00:00:05.767Z,15836.00
2019-04-14T00:01:06.416Z,16832.00
2019-04-14T00:02:05.737Z,17600.00
2019-04-14T00:03:06.589Z,17728.00
2019-04-14T00:04:05.714Z,18432.00
2019-04-14T00:05:06.134Z,15800.00
2019-04-14T00:06:06.861Z,11536.00
2019-04-14T00:07:05.900Z,9456.00
2019-04-14T00:08:06.688Z,9296.00
2019-04-14T00:09:05.669Z,8848.00
2019-04-14T00:10:05.655Z,7980.00
2019-04-14T00:11:06.143Z,7800.00
2019-04-14T00:12:07.446Z,7376.00
2019-04-14T00:13:06.659Z,6740.00
2019-04-14T00:14:05.625Z,6232.00
2019-04-14T00:15:17.740Z,5828.00
2019-04-14T00:16:05.613Z,5548.00
2019-04-14T00:17:06.560Z,5400.00
2019-04-14T00:18:05.597Z,5452.00
2019-04-14T00:19:06.521Z,5980.00
2019-04-14T00:20:05.583Z,6648.00
2019-04-14T00:21:06.556Z,6708.00
2019-04-14T00:22:05.555Z,6740.00
2019-04-14T00:23:06.512Z,6688.00
2019-04-14T00:24:05.535Z,6648.00
2019-04-14T00:25:06.446Z,6500.00
2019-04-14T00:26:05.520Z,6512.00
2019-04-14T00:27:06.356Z,6612.00
2019-04-14T00:28:05.504Z,6544.00
2019-04-14T00:29:06.706Z,6392.00
2019-04-14T00:30:05.595Z,6208.00
2019-04-14T00:31:06.541Z,6144.00
2019-04-14T00:32:05.476Z,5920.00
2019-04-14T00:33:06.267Z,5860.00
2019-04-14T00:34:05.455Z,5836.00
2019-04-14T00:35:06.097Z,5784.00
2019-04-14T00:36:06.484Z,5744.00
2019-04-14T00:37:05.630Z,5524.00
2019-04-14T00:38:06.316Z,5672.00
2019-04-14T00:39:05.411Z,5252.00
2019-04-14T00:40:06.168Z,5432.00
2019-04-14T00:41:05.391Z,5276.00
2019-04-14T00:42:06.630Z,5400.00
2019-04-14T00:43:05.381Z,5660.00
2019-04-14T00:44:05.704Z,5988.00
2019-04-14T00:45:05.355Z,6152.00
2019-04-14T00:46:05.884Z,6220.00
2019-04-14T00:47:05.345Z,6312.00
2019-04-14T00:48:10.804Z,6400.00
2019-04-14T00:49:05.317Z,6396.00
2019-04-14T00:50:05.811Z,6572.00
2019-04-14T00:51:05.302Z,6584.00
2019-04-14T00:52:05.750Z,6480.00
2019-04-14T00:53:05.501Z,6596.00
2019-04-14T00:54:06.518Z,6632.00
2019-04-14T00:55:05.369Z,6596.00
2019-04-14T00:56:06.200Z,6668.00
2019-04-14T00:57:05.255Z,6632.00
2019-04-14T00:58:05.966Z,6528.00
2019-04-14T00:59:05.238Z,6428.00
2019-04-14T01:00:05.970Z,6096.00
2019-04-14T01:01:05.221Z,6092.00
2019-04-14T01:02:05.669Z,6052.00
2019-04-14T01:03:05.195Z,5972.00
2019-04-14T01:04:05.597Z,5844.00
2019-04-14T01:05:05.181Z,6000.00
2019-04-14T01:06:05.425Z,6180.00
2019-04-14T01:07:06.483Z,6280.00
2019-04-14T01:08:05.298Z,6412.00
2019-04-14T01:09:06.346Z,6624.00
2019-04-14T01:10:06.029Z,6832.00
2019-04-14T01:11:05.312Z,6836.00
2019-04-14T01:12:05.961Z,6608.00
2019-04-14T01:13:08.080Z,6668.00
2019-04-14T01:14:05.874Z,7020.00
2019-04-14T01:15:05.086Z,7052.00
2019-04-14T01:16:11.555Z,7056.00
2019-04-14T01:17:05.082Z,7084.00
2019-04-14T01:18:05.699Z,6988.00
2019-04-14T01:19:05.053Z,6988.00
2019-04-14T01:20:05.703Z,7036.00
2019-04-14T01:21:05.036Z,7004.00
2019-04-14T01:22:05.327Z,7000.00
2019-04-14T01:23:06.219Z,6896.00
2019-04-14T01:24:05.322Z,6868.00
2019-04-14T01:25:05.012Z,6756.00
2019-04-14T01:26:05.067Z,6656.00
2019-04-14T01:27:05.956Z,6748.00
2019-04-14T01:28:04.986Z,6804.00
2019-04-14T01:29:05.831Z,6776.00
2019-04-14T01:30:04.959Z,6752.00
2019-04-14T01:31:05.544Z,6824.00
2019-04-14T01:32:04.958Z,6868.00
2019-04-14T01:33:05.474Z,6928.00
2019-04-14T01:34:06.235Z,6936.00
2019-04-14T01:35:05.337Z,6960.00
2019-04-14T01:36:05.952Z,6972.00
2019-04-14T01:37:05.145Z,7004.00
2019-04-14T01:38:05.861Z,6980.00
2019-04-14T01:39:04.884Z,7080.00
2019-04-14T01:40:05.266Z,7088.00
2019-04-14T01:41:04.876Z,7112.00
2019-04-14T01:42:04.972Z,7096.00
2019-04-14T01:43:05.912Z,7076.00
2019-04-14T01:44:04.865Z,7036.00
2019-04-14T01:45:05.695Z,7016.00
2019-04-14T01:46:13.489Z,7004.00
2019-04-14T01:47:05.254Z,6960.00
2019-04-14T01:48:05.909Z,6912.00
2019-04-14T01:49:05.020Z,6864.00
2019-04-14T01:50:05.883Z,6816.00
2019-04-14T01:51:04.922Z,6756.00
2019-04-14T01:52:05.695Z,6704.00
2019-04-14T01:53:05.380Z,6672.00
2019-04-14T01:54:05.859Z,6636.00
2019-04-14T01:55:04.832Z,6596.00
2019-04-14T01:56:05.635Z,6520.00
2019-04-14T01:57:04.742Z,6488.00
2019-04-14T01:58:05.382Z,6464.00
2019-04-14T01:59:04.716Z,6380.00
2019-04-14T02:00:05.379Z,6340.00
2019-04-14T02:01:04.703Z,6300.00
2019-04-14T02:02:05.133Z,6248.00
2019-04-14T02:03:04.696Z,6192.00
2019-04-14T02:04:04.969Z,6156.00
2019-04-14T02:05:04.676Z,6108.00
2019-04-14T02:06:04.889Z,6080.00
2019-04-14T02:07:05.834Z,6016.00
2019-04-14T02:08:04.654Z,5964.00
2019-04-14T02:09:05.367Z,5904.00
2019-04-14T02:10:04.639Z,5852.00
2019-04-14T02:11:05.200Z,5800.00
2019-04-14T02:12:04.616Z,5740.00
2019-04-14T02:13:04.996Z,5712.00
2019-04-14T02:14:04.599Z,5664.00
2019-04-14T02:15:04.813Z,5596.00
2019-04-14T02:16:14.994Z,5460.00
2019-04-14T02:17:06.066Z,5392.00
2019-04-14T02:18:05.579Z,5408.00
2019-04-14T02:19:04.630Z,5372.00
2019-04-14T02:20:05.507Z,5316.00
2019-04-14T02:21:04.542Z,5304.00
2019-04-14T02:22:05.163Z,5140.00
2019-04-14T02:23:04.542Z,5164.00
2019-04-14T02:24:04.932Z,5152.00
2019-04-14T02:25:05.562Z,5084.00
2019-04-14T02:26:04.700Z,5036.00
2019-04-14T02:27:05.472Z,5000.00
2019-04-14T02:28:04.777Z,4964.00
2019-04-14T02:29:05.657Z,4916.00
2019-04-14T02:30:06.688Z,4856.00
2019-04-14T02:31:19.464Z,4816.00
2019-04-14T02:32:33.814Z,4764.00
2019-04-14T02:33:41.496Z,4708.00
2019-04-14T02:35:47.297Z,4632.00
2019-04-14T02:36:32.275Z,4584.00
2019-04-14T02:38:47.377Z,4492.00
2019-04-14T02:40:36.898Z,4424.00
2019-04-14T02:42:34.452Z,4312.00
2019-04-14T02:44:36.429Z,4200.00
2019-04-14T02:45:35.494Z,4184.00
2019-04-14T02:50:24.349Z,3968.00
2019-04-14T02:51:33.714Z,3924.00
2019-04-14T02:52:34.903Z,3892.00
2019-04-14T02:53:34.396Z,3844.00
2019-04-14T02:54:36.673Z,3812.00
2019-04-14T02:55:38.372Z,3792.00
2019-04-14T02:56:34.325Z,3768.00
2019-04-14T02:57:30.519Z,3724.00
2019-04-14T02:58:40.416Z,3680.00
2019-04-14T02:59:30.402Z,3632.00
2019-04-14T03:00:36.551Z,3612.00
2019-04-14T03:03:35.883Z,3496.00
2019-04-14T03:04:26.115Z,3468.00
2019-04-14T03:05:26.714Z,3428.00
2019-04-14T03:06:26.058Z,3404.00
2019-04-14T03:07:34.178Z,3360.00
2019-04-14T03:08:34.483Z,3320.00
2019-04-14T03:09:36.366Z,3316.00
2019-04-14T03:10:33.922Z,3284.00
2019-04-14T03:11:32.614Z,3256.00
2019-04-14T03:13:28.698Z,3188.00
2019-04-14T03:14:36.864Z,3148.00
2019-04-14T03:15:35.155Z,3116.00
2019-04-14T03:16:37.564Z,3092.00
2019-04-14T03:17:33.345Z,3056.00
2019-04-14T03:19:35.549Z,2972.00
2019-04-14T03:20:39.556Z,2908.00
2019-04-14T03:21:54.744Z,2964.00
2019-04-14T03:22:43.886Z,2988.00
2019-04-14T03:23:34.825Z,2916.00
2019-04-14T03:24:29.160Z,2880.00
2019-04-14T03:25:22.575Z,2860.00
2019-04-14T03:26:27.105Z,2812.00
2019-04-14T03:27:33.040Z,2816.00
2019-04-14T03:28:34.231Z,2848.00
2019-04-14T03:29:26.890Z,2688.00
2019-04-14T03:31:50.935Z,2708.00
2019-04-14T03:34:50.027Z,2600.00
2019-04-14T03:39:36.945Z,2508.00
2019-04-14T03:40:34.374Z,2560.00
2019-04-14T03:42:35.571Z,2500.00
2019-04-14T03:43:30.282Z,2464.00
2019-04-14T03:45:35.747Z,2400.00
2019-04-14T03:47:25.792Z,2372.00
2019-04-14T03:49:32.264Z,2224.00
2019-04-14T03:50:32.848Z,2172.00
2019-04-14T03:52:31.615Z,2144.00
2019-04-14T03:53:26.272Z,2108.00
2019-04-14T03:54:20.215Z,2060.00
2019-04-14T03:55:15.991Z,2028.00
2019-04-14T03:56:07.319Z,2000.00
2019-04-14T03:57:04.042Z,2012.00
2019-04-14T03:58:03.905Z,1956.00
2019-04-14T03:59:04.205Z,1956.00
2019-04-14T04:00:03.740Z,1940.00
2019-04-14T04:01:04.002Z,1932.00
2019-04-14T04:02:03.723Z,1908.00
2019-04-14T04:03:04.133Z,1908.00
2019-04-14T04:04:03.736Z,1908.00
2019-04-14T04:05:04.206Z,1904.00
2019-04-14T04:06:03.706Z,1848.00
2019-04-14T04:07:03.870Z,1864.00
2019-04-14T04:08:04.984Z,1832.00
2019-04-14T04:09:03.979Z,1828.00
2019-04-14T04:10:04.826Z,1788.00
2019-04-14T04:11:04.039Z,1752.00
2019-04-14T04:12:03.637Z,1716.00
2019-04-14T04:13:04.078Z,1704.00
2019-04-14T04:14:03.624Z,1716.00
2019-04-14T04:15:03.970Z,1724.00
2019-04-14T04:16:03.599Z,1728.00
2019-04-14T04:17:03.670Z,1736.00
2019-04-14T04:18:04.779Z,1704.00
2019-04-14T04:19:08.738Z,1696.00
2019-04-14T04:20:04.543Z,1704.00
2019-04-14T04:21:03.562Z,1696.00
2019-04-14T04:22:04.231Z,1692.00
2019-04-14T04:23:03.542Z,1704.00
2019-04-14T04:24:04.304Z,1688.00
2019-04-14T04:25:03.534Z,1660.00
2019-04-14T04:26:04.026Z,1680.00
2019-04-14T04:27:04.596Z,1700.00
2019-04-14T04:28:03.811Z,1692.00
2019-04-14T04:29:04.737Z,1688.00
2019-04-14T04:30:03.759Z,1652.00
2019-04-14T04:31:04.495Z,1668.00
2019-04-14T04:32:03.556Z,1676.00
2019-04-14T04:33:04.434Z,1652.00
2019-04-14T04:34:03.447Z,1668.00
2019-04-14T04:35:04.320Z,1668.00
2019-04-14T04:36:03.432Z,1660.00
2019-04-14T04:37:03.928Z,1652.00
2019-04-14T04:38:03.420Z,1664.00
2019-04-14T04:39:03.959Z,1640.00
2019-04-14T04:40:03.403Z,1612.00
2019-04-14T04:41:03.745Z,1588.00
2019-04-14T04:42:04.723Z,1596.00
2019-04-14T04:43:03.803Z,1608.00
2019-04-14T04:44:03.368Z,1580.00
2019-04-14T04:45:03.934Z,1592.00
2019-04-14T04:46:03.346Z,1572.00
2019-04-14T04:47:03.527Z,1548.00
2019-04-14T04:48:04.453Z,1556.00
2019-04-14T04:49:11.663Z,1524.00
2019-04-14T04:50:04.286Z,1544.00
2019-04-14T04:51:03.302Z,1532.00
2019-04-14T04:52:04.117Z,1524.00
2019-04-14T04:53:03.291Z,1228.00
2019-04-14T04:54:03.876Z,1212.00
2019-04-14T04:55:04.516Z,1248.00
2019-04-14T04:56:03.615Z,1252.00
2019-04-14T04:57:04.498Z,1224.00
2019-04-14T04:58:03.427Z,1212.00
2019-04-14T04:59:03.354Z,1216.00
2019-04-14T05:00:03.217Z,1208.00
2019-04-14T05:01:03.506Z,1200.00
2019-04-14T05:02:03.202Z,1188.00
2019-04-14T05:03:03.688Z,1172.00
2019-04-14T05:04:03.200Z,1188.00
2019-04-14T05:05:03.508Z,1184.00
2019-04-14T05:06:03.176Z,1176.00
2019-04-14T05:07:03.522Z,1160.00
2019-04-14T05:08:04.218Z,1168.00
2019-04-14T05:09:03.404Z,1156.00
2019-04-14T05:10:04.555Z,1148.00
2019-04-14T05:11:03.269Z,1160.00
2019-04-14T05:12:03.113Z,1176.00
2019-04-14T05:13:03.113Z,1164.00
2019-04-14T05:14:04.302Z,1148.00
2019-04-14T05:15:03.538Z,1128.00
2019-04-14T05:16:04.090Z,1136.00
2019-04-14T05:17:03.668Z,1132.00
2019-04-14T05:18:03.061Z,1132.00
2019-04-14T05:19:14.011Z,1148.00
2019-04-14T05:20:03.249Z,1116.00
2019-04-14T05:21:03.958Z,1100.00
2019-04-14T05:22:03.028Z,1096.00
2019-04-14T05:23:03.726Z,1104.00
2019-04-14T05:24:03.009Z,1112.00
2019-04-14T05:25:03.610Z,1116.00
2019-04-14T05:26:02.984Z,1120.00
2019-04-14T05:27:03.635Z,1124.00
2019-04-14T05:28:02.975Z,1120.00
2019-04-14T05:29:03.605Z,1124.00
2019-04-14T05:30:02.960Z,1116.00
2019-04-14T05:31:03.346Z,1104.00
2019-04-14T05:32:02.941Z,1100.00
2019-04-14T05:33:03.049Z,1120.00
2019-04-14T05:34:02.922Z,1152.00
2019-04-14T05:35:03.136Z,1152.00
2019-04-14T05:36:04.108Z,1140.00
2019-04-14T05:37:03.346Z,1120.00
2019-04-14T05:38:03.845Z,1120.00
2019-04-14T05:39:02.883Z,1104.00
2019-04-14T05:40:03.772Z,1068.00
2019-04-14T05:41:02.856Z,1064.00
2019-04-14T05:42:09.455Z,1056.00
2019-04-14T05:43:02.832Z,1044.00
2019-04-14T05:44:03.565Z,1040.00
2019-04-14T05:45:02.806Z,1036.00
2019-04-14T05:46:03.487Z,1036.00
2019-04-14T05:47:02.797Z,1032.00
2019-04-14T05:48:03.258Z,1048.00
2019-04-14T05:49:02.783Z,1056.00
2019-04-14T05:50:03.192Z,1048.00
2019-04-14T05:51:02.768Z,1040.00
2019-04-14T05:52:03.422Z,1040.00
2019-04-14T05:53:02.733Z,1036.00
2019-04-14T05:54:03.436Z,1036.00
2019-04-14T05:55:02.737Z,1032.00
2019-04-14T05:56:03.567Z,1028.00
2019-04-14T05:57:02.703Z,1044.00
2019-04-14T05:58:03.596Z,1048.00
2019-04-14T05:59:02.686Z,1052.00
2019-04-14T06:00:03.725Z,1060.00
2019-04-14T06:01:02.674Z,1072.00
2019-04-14T06:02:02.695Z,1072.00
2019-04-14T06:03:03.728Z,1064.00
2019-04-14T06:04:02.637Z,1024.00
2019-04-14T06:05:03.616Z,1032.00
2019-04-14T06:06:02.629Z,1028.00
2019-04-14T06:07:02.621Z,1024.00
2019-04-14T06:08:02.599Z,1004.00
2019-04-14T06:09:02.591Z,1012.00
2019-04-14T06:10:02.578Z,1016.00
2019-04-14T06:11:02.575Z,1024.00
2019-04-14T06:12:02.562Z,1016.00
2019-04-14T06:13:02.561Z,1012.00
2019-04-14T06:14:02.545Z,1008.00
2019-04-14T06:15:02.538Z,1000.00
2019-04-14T06:16:02.528Z,992.00
2019-04-14T06:17:02.512Z,1000.00
2019-04-14T06:18:02.513Z,1000.00
2019-04-14T06:19:02.508Z,992.00
2019-04-14T06:20:02.508Z,980.00
2019-04-14T06:21:02.487Z,992.00
2019-04-14T06:22:02.470Z,996.00
2019-04-14T06:23:02.461Z,992.00
2019-04-14T06:24:02.450Z,992.00
2019-04-14T06:25:02.441Z,988.00
2019-04-14T06:26:02.446Z,1000.00
2019-04-14T06:27:02.887Z,992.00
2019-04-14T06:28:02.422Z,984.00
2019-04-14T06:29:02.413Z,984.00
2019-04-14T06:30:02.415Z,980.00
2019-04-14T06:31:02.407Z,980.00
2019-04-14T06:32:02.397Z,1000.00
2019-04-14T06:33:02.369Z,1004.00
2019-04-14T06:34:02.365Z,996.00
2019-04-14T06:35:02.356Z,996.00
2019-04-14T06:36:02.343Z,1000.00
2019-04-14T06:37:02.341Z,1000.00
2019-04-14T06:38:02.321Z,1008.00
2019-04-14T06:39:02.325Z,992.00
2019-04-14T06:40:02.304Z,988.00
2019-04-14T06:41:02.302Z,980.00
2019-04-14T06:42:02.305Z,984.00
2019-04-14T06:43:02.280Z,968.00
2019-04-14T06:44:02.270Z,956.00
2019-04-14T06:45:02.263Z,960.00
2019-04-14T06:46:02.260Z,956.00
2019-04-14T06:47:02.289Z,964.00
2019-04-14T06:48:02.264Z,976.00
2019-04-14T06:49:02.235Z,976.00
2019-04-14T06:50:02.219Z,952.00
2019-04-14T06:51:02.217Z,948.00
2019-04-14T06:52:02.227Z,960.00
2019-04-14T06:53:02.193Z,956.00
2019-04-14T06:54:02.183Z,948.00
2019-04-14T06:55:02.175Z,960.00
2019-04-14T06:56:02.905Z,968.00
2019-04-14T06:57:02.160Z,956.00
2019-04-14T06:58:02.139Z,948.00
2019-04-14T06:59:02.151Z,948.00
2019-04-14T07:00:02.133Z,948.00
2019-04-14T07:01:02.159Z,948.00
2019-04-14T07:02:02.148Z,944.00
2019-04-14T07:03:02.096Z,944.00
2019-04-14T07:04:02.106Z,940.00
2019-04-14T07:05:02.072Z,924.00
2019-04-14T07:06:02.070Z,924.00
2019-04-14T07:07:02.061Z,920.00
2019-04-14T07:08:02.058Z,920.00
2019-04-14T07:09:02.045Z,920.00
2019-04-14T07:10:02.073Z,928.00
2019-04-14T07:11:02.030Z,920.00
2019-04-14T07:12:02.097Z,928.00
2019-04-14T07:13:02.009Z,928.00
2019-04-14T07:14:02.012Z,936.00
2019-04-14T07:15:02.002Z,932.00
2019-04-14T07:16:02.001Z,920.00
2019-04-14T07:17:01.975Z,912.00
2019-04-14T07:18:02.066Z,904.00
2019-04-14T07:19:01.963Z,908.00
2019-04-14T07:20:02.654Z,900.00
2019-04-14T07:21:01.942Z,900.00
2019-04-14T07:22:01.926Z,904.00
2019-04-14T07:23:01.912Z,900.00
2019-04-14T07:24:01.910Z,900.00
2019-04-14T07:25:01.919Z,900.00
2019-04-14T07:26:01.902Z,912.00
2019-04-14T07:27:01.877Z,916.00
2019-04-14T07:28:01.874Z,920.00
2019-04-14T07:29:01.855Z,920.00
2019-04-14T07:30:01.854Z,916.00
2019-04-14T07:31:01.842Z,920.00
2019-04-14T07:32:01.837Z,912.00
2019-04-14T07:33:01.827Z,912.00
2019-04-14T07:34:01.845Z,924.00
2019-04-14T07:35:01.849Z,920.00
2019-04-14T07:36:01.799Z,916.00
2019-04-14T07:37:01.782Z,916.00
2019-04-14T07:38:01.795Z,916.00
2019-04-14T07:39:01.768Z,916.00
2019-04-14T07:40:01.760Z,924.00
2019-04-14T07:41:01.763Z,928.00
2019-04-14T07:42:01.746Z,936.00
2019-04-14T07:43:01.735Z,924.00
2019-04-14T07:44:01.726Z,920.00
2019-04-14T07:45:01.717Z,936.00
2019-04-14T07:46:01.783Z,940.00
2019-04-14T07:47:01.700Z,944.00
2019-04-14T07:48:01.687Z,944.00
2019-04-14T07:49:01.683Z,928.00
2019-04-14T07:50:13.694Z,928.00
2019-04-14T07:51:01.655Z,896.00
2019-04-14T07:52:01.643Z,892.00
2019-04-14T07:53:01.632Z,884.00
2019-04-14T07:54:01.631Z,880.00
2019-04-14T07:55:01.620Z,876.00
2019-04-14T07:56:01.617Z,872.00
2019-04-14T07:57:01.601Z,876.00
2019-04-14T07:58:01.613Z,880.00
2019-04-14T07:59:01.581Z,868.00
2019-04-14T08:00:01.592Z,868.00
2019-04-14T08:01:01.568Z,868.00
2019-04-14T08:02:01.563Z,876.00
2019-04-14T08:03:01.551Z,872.00
2019-04-14T08:04:01.542Z,872.00
2019-04-14T08:05:01.535Z,868.00
2019-04-14T08:06:01.524Z,876.00
2019-04-14T08:07:01.514Z,888.00
2019-04-14T08:08:01.500Z,888.00
2019-04-14T08:09:01.502Z,888.00
2019-04-14T08:10:01.488Z,876.00
2019-04-14T08:11:01.472Z,864.00
2019-04-14T08:12:01.475Z,872.00
2019-04-14T08:13:01.463Z,868.00
2019-04-14T08:14:01.453Z,872.00
2019-04-14T08:15:01.439Z,872.00
2019-04-14T08:16:01.441Z,876.00
2019-04-14T08:17:01.425Z,880.00
2019-04-14T08:18:01.414Z,852.00
2019-04-14T08:19:01.401Z,856.00
2019-04-14T08:20:01.395Z,852.00
2019-04-14T08:21:01.390Z,860.00
2019-04-14T08:22:01.371Z,852.00
2019-04-14T08:23:01.365Z,856.00
2019-04-14T08:24:01.354Z,848.00
2019-04-14T08:25:01.349Z,836.00
2019-04-14T08:26:01.348Z,832.00
2019-04-14T08:27:01.325Z,836.00
2019-04-14T08:28:01.317Z,840.00
2019-04-14T08:29:01.304Z,832.00
2019-04-14T08:30:01.314Z,828.00
2019-04-14T08:31:01.301Z,828.00
2019-04-14T08:32:01.282Z,836.00
2019-04-14T08:33:01.271Z,836.00
2019-04-14T08:34:01.273Z,828.00
2019-04-14T08:35:01.264Z,820.00
2019-04-14T08:36:01.250Z,824.00
2019-04-14T08:37:01.244Z,820.00
2019-04-14T08:38:01.236Z,820.00
2019-04-14T08:39:01.225Z,820.00
2019-04-14T08:40:01.222Z,824.00
2019-04-14T08:41:01.208Z,824.00
2019-04-14T08:42:01.524Z,824.00
2019-04-14T08:43:01.188Z,836.00
2019-04-14T08:44:01.177Z,832.00
2019-04-14T08:45:01.167Z,828.00
2019-04-14T08:46:01.161Z,816.00
2019-04-14T08:47:01.150Z,808.00
2019-04-14T08:48:01.148Z,808.00
2019-04-14T08:49:01.130Z,816.00
2019-04-14T08:50:01.123Z,816.00
2019-04-14T08:51:01.115Z,832.00
2019-04-14T08:52:01.109Z,836.00
2019-04-14T08:53:01.095Z,820.00
2019-04-14T08:54:01.090Z,796.00
2019-04-14T08:55:01.077Z,792.00
2019-04-14T08:56:01.063Z,780.00
2019-04-14T08:57:01.052Z,780.00
2019-04-14T08:58:01.042Z,780.00
2019-04-14T08:59:01.042Z,780.00
2019-04-14T09:00:01.029Z,788.00
2019-04-14T09:01:01.031Z,776.00
2019-04-14T09:02:01.010Z,764.00
2019-04-14T09:03:01.004Z,776.00
2019-04-14T09:04:00.990Z,784.00
2019-04-14T09:05:00.985Z,788.00
2019-04-14T09:06:00.972Z,784.00
2019-04-14T09:07:00.962Z,772.00
2019-04-14T09:08:00.951Z,780.00
2019-04-14T09:09:01.625Z,776.00
2019-04-14T09:10:00.932Z,776.00
2019-04-14T09:11:00.943Z,772.00
2019-04-14T09:12:00.932Z,764.00
2019-04-14T09:13:00.902Z,760.00
2019-04-14T09:14:00.891Z,760.00
2019-04-14T09:15:00.921Z,760.00
2019-04-14T09:16:00.876Z,756.00
2019-04-14T09:17:00.885Z,764.00
2019-04-14T09:18:01.396Z,760.00
2019-04-14T09:19:07.382Z,752.00
2019-04-14T09:20:00.851Z,760.00
2019-04-14T09:21:00.839Z,772.00
2019-04-14T09:22:00.825Z,768.00
2019-04-14T09:23:00.820Z,768.00
2019-04-14T09:24:00.924Z,760.00
2019-04-14T09:25:00.807Z,752.00
2019-04-14T09:26:00.785Z,752.00
2019-04-14T09:27:00.785Z,744.00
2019-04-14T09:28:00.771Z,748.00
2019-04-14T09:29:00.767Z,752.00
2019-04-14T09:30:00.750Z,740.00
2019-04-14T09:31:00.744Z,736.00
2019-04-14T09:32:00.735Z,740.00
2019-04-14T09:33:00.727Z,732.00
2019-04-14T09:34:00.738Z,728.00
2019-04-14T09:35:00.736Z,728.00
2019-04-14T09:36:00.695Z,728.00
2019-04-14T09:37:00.683Z,732.00
2019-04-14T09:38:00.686Z,724.00
2019-04-14T09:39:00.667Z,728.00
2019-04-14T09:40:00.660Z,724.00
2019-04-14T09:41:00.652Z,724.00
2019-04-14T09:42:00.646Z,724.00
2019-04-14T09:43:00.677Z,720.00
2019-04-14T09:44:00.625Z,720.00
2019-04-14T09:45:00.608Z,716.00
2019-04-14T09:46:00.606Z,716.00
2019-04-14T09:47:00.596Z,716.00
2019-04-14T09:48:00.585Z,712.00
2019-04-14T09:49:00.575Z,708.00
2019-04-14T09:50:00.563Z,704.00
2019-04-14T09:51:05.035Z,704.00
2019-04-14T09:52:00.555Z,704.00
2019-04-14T09:53:00.542Z,696.00
2019-04-14T09:54:00.532Z,696.00
2019-04-14T09:55:00.533Z,696.00
2019-04-14T09:56:00.512Z,692.00
2019-04-14T09:57:00.501Z,688.00
2019-04-14T09:58:00.495Z,688.00
2019-04-14T09:59:00.488Z,684.00
2019-04-14T10:00:00.473Z,680.00
2019-04-14T10:01:00.467Z,672.00
2019-04-14T10:02:00.458Z,676.00
2019-04-14T10:03:00.446Z,676.00
2019-04-14T10:04:00.443Z,668.00
2019-04-14T10:05:00.429Z,664.00
2019-04-14T10:06:00.428Z,664.00
2019-04-14T10:07:00.409Z,664.00
2019-04-14T10:08:00.402Z,664.00
2019-04-14T10:09:00.387Z,656.00
2019-04-14T10:10:00.379Z,656.00
2019-04-14T10:11:00.382Z,656.00
2019-04-14T10:12:00.368Z,644.00
2019-04-14T10:13:00.361Z,652.00
2019-04-14T10:14:00.344Z,648.00
2019-04-14T10:15:00.334Z,648.00
2019-04-14T10:16:00.336Z,648.00
2019-04-14T10:17:01.541Z,640.00
2019-04-14T10:18:00.318Z,628.00
2019-04-14T10:19:00.323Z,628.00
2019-04-14T10:20:00.294Z,628.00
2019-04-14T10:21:00.285Z,620.00
2019-04-14T10:22:00.273Z,616.00
2019-04-14T10:23:00.259Z,612.00
2019-04-14T10:24:00.254Z,608.00
2019-04-14T10:25:00.244Z,604.00
2019-04-14T10:26:00.248Z,600.00
2019-04-14T10:27:00.227Z,596.00
2019-04-14T10:28:00.213Z,596.00
2019-04-14T10:29:00.205Z,592.00
2019-04-14T10:30:00.205Z,584.00
2019-04-14T10:31:00.192Z,584.00
2019-04-14T10:32:00.180Z,580.00
2019-04-14T10:33:00.174Z,580.00
2019-04-14T10:34:00.162Z,580.00
2019-04-14T10:35:00.153Z,584.00
2019-04-14T10:36:00.164Z,572.00
2019-04-14T10:37:00.132Z,568.00
2019-04-14T10:38:00.122Z,560.00
2019-04-14T10:39:00.115Z,552.00
2019-04-14T10:40:00.136Z,548.00
2019-04-14T10:41:00.089Z,544.00
2019-04-14T10:42:00.085Z,540.00
2019-04-14T10:43:00.080Z,540.00
2019-04-14T10:44:00.065Z,536.00
2019-04-14T10:45:00.064Z,528.00
2019-04-14T10:46:00.051Z,524.00
2019-04-14T10:47:00.036Z,520.00
2019-04-14T10:48:00.037Z,516.00
2019-04-14T10:49:00.019Z,508.00
2019-04-14T10:50:00.019Z,504.00
2019-04-14T10:51:00.008Z,500.00
2019-04-14T10:52:00.014Z,492.00
2019-04-14T10:52:59.989Z,484.00
2019-04-14T10:53:59.987Z,480.00
2019-04-14T10:54:59.975Z,476.00
2019-04-14T10:56:00.000Z,472.00
2019-04-14T10:57:01.200Z,464.00
2019-04-14T10:57:59.953Z,460.00
2019-04-14T10:58:59.934Z,452.00
2019-04-14T10:59:59.922Z,448.00
2019-04-14T11:00:59.911Z,440.00
2019-04-14T11:01:59.959Z,436.00
2019-04-14T11:02:59.893Z,428.00
2019-04-14T11:03:59.895Z,424.00
2019-04-14T11:04:59.872Z,416.00
2019-04-14T11:05:59.864Z,408.00
2019-04-14T11:06:59.855Z,408.00
2019-04-14T11:07:59.861Z,396.00
2019-04-14T11:08:59.831Z,392.00
2019-04-14T11:09:59.825Z,384.00
2019-04-14T11:10:59.819Z,376.00
2019-04-14T11:11:59.818Z,372.00
2019-04-14T11:12:59.807Z,360.00
2019-04-14T11:13:59.790Z,356.00
2019-04-14T11:14:59.773Z,348.00
2019-04-14T11:15:59.790Z,344.00
2019-04-14T11:16:59.769Z,336.00
2019-04-14T11:17:59.757Z,328.00
2019-04-14T11:18:59.751Z,320.00
2019-04-14T11:19:59.745Z,312.00
2019-04-14T11:20:59.719Z,304.00
2019-04-14T11:21:59.721Z,300.00
2019-04-14T11:23:03.455Z,292.00
2019-04-14T11:23:59.697Z,284.00
2019-04-14T11:24:59.684Z,280.00
2019-04-14T11:25:59.680Z,272.00
2019-04-14T11:26:59.676Z,264.00
2019-04-14T11:27:59.668Z,260.00
2019-04-14T11:28:59.660Z,252.00
2019-04-14T11:29:59.650Z,244.00
2019-04-14T11:30:59.629Z,240.00
2019-04-14T11:31:59.625Z,232.00
2019-04-14T11:32:59.615Z,228.00
2019-04-14T11:33:59.637Z,220.00
2019-04-14T11:34:59.684Z,216.00
2019-04-14T11:35:59.586Z,208.00
2019-04-14T11:36:59.569Z,204.00
2019-04-14T11:37:59.568Z,200.00
2019-04-14T11:38:59.559Z,196.00
2019-04-14T11:39:59.548Z,188.00
2019-04-14T11:40:59.543Z,188.00
2019-04-14T11:41:59.538Z,180.00
2019-04-14T11:42:59.523Z,176.00
2019-04-14T11:43:59.513Z,176.00
2019-04-14T11:44:59.513Z,176.00
2019-04-14T11:45:59.496Z,172.00
2019-04-14T11:46:59.482Z,168.00
2019-04-14T11:47:59.492Z,168.00
2019-04-14T11:48:59.481Z,164.00
2019-04-14T11:49:59.460Z,160.00
2019-04-14T11:50:59.445Z,160.00
2019-04-14T11:51:59.439Z,160.00
2019-04-14T11:52:59.427Z,156.00
2019-04-14T11:53:59.425Z,160.00
2019-04-14T11:54:59.413Z,156.00
2019-04-14T11:55:59.398Z,156.00
2019-04-14T11:56:59.392Z,156.00
2019-04-14T11:57:59.379Z,156.00
2019-04-14T11:58:59.381Z,156.00
2019-04-14T11:59:59.358Z,152.00
2019-04-14T12:00:59.369Z,152.00
2019-04-14T12:01:59.348Z,152.00
2019-04-14T12:02:59.348Z,152.00
2019-04-14T12:03:59.329Z,152.00
2019-04-14T12:04:59.317Z,152.00
2019-04-14T12:05:59.311Z,136.00
2019-04-14T12:06:59.290Z,32.00
2019-04-14T12:07:59.295Z,32.00
2019-04-14T12:08:59.282Z,32.00
2019-04-14T12:09:59.276Z,28.00
2019-04-14T12:10:59.255Z,32.00
2019-04-14T12:11:59.258Z,32.00
2019-04-14T12:12:59.284Z,28.00
2019-04-14T12:13:59.241Z,32.00
2019-04-14T12:14:59.223Z,32.00
2019-04-14T12:15:59.214Z,32.00
2019-04-14T12:16:59.202Z,32.00
2019-04-14T12:17:59.195Z,32.00
2019-04-14T12:18:59.190Z,32.00
2019-04-14T12:19:59.189Z,32.00
2019-04-14T12:20:59.179Z,32.00
2019-04-14T12:22:08.090Z,32.00
2019-04-14T12:22:59.153Z,32.00
2019-04-14T12:23:59.140Z,32.00
2019-04-14T12:24:59.134Z,32.00
2019-04-14T12:26:05.297Z,32.00
2019-04-14T12:26:59.112Z,32.00
2019-04-14T12:28:00.130Z,32.00
2019-04-14T12:29:01.609Z,32.00
2019-04-14T12:29:59.102Z,32.00
2019-04-14T12:30:59.782Z,32.00
2019-04-14T12:31:59.602Z,32.00
2019-04-14T12:32:59.050Z,32.00
2019-04-14T12:33:59.046Z,32.00
2019-04-14T12:34:59.045Z,32.00
2019-04-14T12:35:59.032Z,32.00
2019-04-14T12:36:59.015Z,32.00
2019-04-14T12:37:59.009Z,32.00
2019-04-14T12:38:59.004Z,32.00
2019-04-14T12:39:58.988Z,32.00
2019-04-14T12:41:00.585Z,32.00
2019-04-14T12:41:58.967Z,32.00
2019-04-14T12:42:58.960Z,32.00